CFG3MK LEPA-EDDS
Flight info
| Callsign | CFG3MK |
|---|---|
| Flight time | 1h 32m |
| Altitude | 36000 |
| Route | MEROS N853 LUMAS DCT MAXIR DCT LUSOL DCT BODRU DCT OKTET DCT IRMAR DCT KINES DCT VANAS DCT MOBLO DCT LAMUR DCT KORED DCT BERSU N871 DITON T163 ZUE T125 ROMIR/N0391F220 T125 REUTL REUTL1W |
| Aircraft | A321/M-SDE3FGHIRWY/LB1 |
Departure
| Time | 2026-05-05 18:54 |
|---|---|
| Airport | Palma de Mallorca Airport (LEPA) |
Arrival
| Time | 2026-05-05 20:26 |
|---|---|
| Airport | Stuttgart Airport (EDDS) |
| Time | Latitude | Longitude | Altitude | Speed | Heading |
|---|---|---|---|---|---|
| 2026-05-05 18:17 | 39.54713 | 2.73660 | 38 ft | 0 kts | 57° |
| 2026-05-05 18:43 | 39.54707 | 2.73646 | 38 ft | 2 kts | 58° |
| 2026-05-05 18:44 | 39.54696 | 2.73617 | 38 ft | 4 kts | 86° |
| 2026-05-05 18:44 | 39.54702 | 2.73588 | 38 ft | 4 kts | 134° |
| 2026-05-05 18:44 | 39.54722 | 2.73568 | 35 ft | 4 kts | 149° |
| 2026-05-05 18:44 | 39.54736 | 2.73558 | 38 ft | 0 kts | 149° |
| 2026-05-05 18:47 | 39.54720 | 2.73569 | 35 ft | 5 kts | 149° |
| 2026-05-05 18:47 | 39.54678 | 2.73603 | 38 ft | 10 kts | 149° |
| 2026-05-05 18:47 | 39.54662 | 2.73674 | 38 ft | 8 kts | 71° |
| 2026-05-05 18:48 | 39.54708 | 2.73777 | 38 ft | 19 kts | 59° |
| 2026-05-05 18:48 | 39.54777 | 2.73919 | 38 ft | 18 kts | 58° |
| 2026-05-05 18:48 | 39.54846 | 2.73993 | 38 ft | 12 kts | 355° |
| 2026-05-05 18:48 | 39.54915 | 2.73961 | 38 ft | 9 kts | 9° |
| 2026-05-05 18:49 | 39.54959 | 2.74008 | 38 ft | 7 kts | 18° |
| 2026-05-05 18:49 | 39.55016 | 2.73976 | 38 ft | 10 kts | 329° |
| 2026-05-05 18:49 | 39.55103 | 2.73908 | 38 ft | 21 kts | 328° |
| 2026-05-05 18:49 | 39.55243 | 2.73797 | 37 ft | 27 kts | 328° |
| 2026-05-05 18:50 | 39.55409 | 2.73666 | 38 ft | 27 kts | 328° |
| 2026-05-05 18:50 | 39.55557 | 2.73549 | 36 ft | 22 kts | 329° |
| 2026-05-05 18:50 | 39.55651 | 2.73510 | 36 ft | 11 kts | 26° |
| 2026-05-05 18:50 | 39.55695 | 2.73587 | 36 ft | 13 kts | 58° |
| 2026-05-05 18:51 | 39.55755 | 2.73712 | 38 ft | 20 kts | 59° |
| 2026-05-05 18:51 | 39.55844 | 2.73901 | 38 ft | 27 kts | 58° |
| 2026-05-05 18:51 | 39.55938 | 2.74100 | 36 ft | 26 kts | 58° |
| 2026-05-05 18:51 | 39.56030 | 2.74295 | 37 ft | 25 kts | 58° |
| 2026-05-05 18:52 | 39.56093 | 2.74422 | 38 ft | 7 kts | 50° |
| 2026-05-05 18:52 | 39.56142 | 2.74452 | 38 ft | 13 kts | 2° |
| 2026-05-05 18:52 | 39.56227 | 2.74399 | 38 ft | 13 kts | 321° |
| 2026-05-05 18:52 | 39.56243 | 2.74299 | 38 ft | 12 kts | 245° |
| 2026-05-05 18:53 | 39.56142 | 2.74087 | 38 ft | 57 kts | 238° |
| 2026-05-05 18:53 | 39.55826 | 2.73419 | 39 ft | 115 kts | 238° |
| 2026-05-05 18:53 | 39.55326 | 2.72361 | 40 ft | 157 kts | 238° |
| 2026-05-05 18:53 | 39.54731 | 2.71113 | 489 ft | 160 kts | 238° |
| 2026-05-05 18:54 | 39.54162 | 2.69883 | 1092 ft | 160 kts | 240° |
| 2026-05-05 18:54 | 39.53582 | 2.68657 | 1669 ft | 159 kts | 238° |
| 2026-05-05 18:54 | 39.52972 | 2.67373 | 1941 ft | 178 kts | 240° |
| 2026-05-05 18:54 | 39.52285 | 2.65920 | 2128 ft | 199 kts | 240° |
| 2026-05-05 18:55 | 39.51539 | 2.64339 | 2485 ft | 209 kts | 240° |
| 2026-05-05 18:55 | 39.50777 | 2.62724 | 3049 ft | 211 kts | 240° |
| 2026-05-05 18:55 | 39.49964 | 2.61146 | 3709 ft | 214 kts | 231° |
| 2026-05-05 18:55 | 39.48670 | 2.60007 | 3907 ft | 243 kts | 207° |
| 2026-05-05 18:56 | 39.47082 | 2.59035 | 4401 ft | 258 kts | 209° |
| 2026-05-05 18:56 | 39.45460 | 2.57979 | 5024 ft | 265 kts | 210° |
| 2026-05-05 18:56 | 39.43796 | 2.56944 | 5259 ft | 267 kts | 202° |
| 2026-05-05 18:56 | 39.41920 | 2.56819 | 5517 ft | 278 kts | 167° |
| 2026-05-05 18:57 | 39.40229 | 2.58018 | 5782 ft | 286 kts | 141° |
| 2026-05-05 18:57 | 39.38774 | 2.59800 | 5933 ft | 289 kts | 138° |
| 2026-05-05 18:57 | 39.37544 | 2.61833 | 6043 ft | 291 kts | 115° |
| 2026-05-05 18:57 | 39.37127 | 2.64386 | 6533 ft | 293 kts | 87° |
| 2026-05-05 18:58 | 39.37281 | 2.67027 | 7230 ft | 297 kts | 83° |
| 2026-05-05 18:58 | 39.37533 | 2.69695 | 7915 ft | 302 kts | 82° |
| 2026-05-05 18:58 | 39.37823 | 2.72405 | 8606 ft | 306 kts | 82° |
| 2026-05-05 18:58 | 39.38128 | 2.75138 | 9303 ft | 310 kts | 82° |
| 2026-05-05 18:59 | 39.38450 | 2.77909 | 9984 ft | 314 kts | 82° |
| 2026-05-05 18:59 | 39.38797 | 2.80809 | 10202 ft | 336 kts | 82° |
| 2026-05-05 18:59 | 39.39164 | 2.83850 | 10322 ft | 358 kts | 82° |
| 2026-05-05 18:59 | 39.39705 | 2.87090 | 10447 ft | 379 kts | 70° |
| 2026-05-05 19:00 | 39.40788 | 2.90268 | 10839 ft | 389 kts | 65° |
| 2026-05-05 19:00 | 39.41925 | 2.93482 | 11389 ft | 395 kts | 65° |
| 2026-05-05 19:00 | 39.43076 | 2.96723 | 11940 ft | 400 kts | 66° |
| 2026-05-05 19:00 | 39.44250 | 3.00033 | 12529 ft | 406 kts | 66° |
| 2026-05-05 19:01 | 39.45430 | 3.03365 | 13086 ft | 411 kts | 66° |
| 2026-05-05 19:01 | 39.46612 | 3.06705 | 13639 ft | 415 kts | 66° |
| 2026-05-05 19:01 | 39.47821 | 3.10129 | 14192 ft | 419 kts | 66° |
| 2026-05-05 19:01 | 39.49035 | 3.13572 | 14712 ft | 423 kts | 66° |
| 2026-05-05 19:02 | 39.50266 | 3.17069 | 15240 ft | 426 kts | 66° |
| 2026-05-05 19:02 | 39.51489 | 3.20542 | 15745 ft | 430 kts | 66° |
| 2026-05-05 19:02 | 39.52736 | 3.24091 | 16261 ft | 434 kts | 66° |
| 2026-05-05 19:02 | 39.53991 | 3.27673 | 16766 ft | 438 kts | 66° |
| 2026-05-05 19:03 | 39.55250 | 3.31282 | 17248 ft | 441 kts | 66° |
| 2026-05-05 19:03 | 39.56518 | 3.34922 | 17733 ft | 445 kts | 66° |
| 2026-05-05 19:03 | 39.57802 | 3.38609 | 18193 ft | 449 kts | 66° |
| 2026-05-05 19:03 | 39.59095 | 3.42314 | 18598 ft | 453 kts | 66° |
| 2026-05-05 19:04 | 39.60400 | 3.46057 | 19017 ft | 456 kts | 66° |
| 2026-05-05 19:04 | 39.61697 | 3.49777 | 19430 ft | 458 kts | 66° |
| 2026-05-05 19:04 | 39.63015 | 3.53565 | 19846 ft | 461 kts | 66° |
| 2026-05-05 19:04 | 39.64554 | 3.57232 | 20247 ft | 463 kts | 53° |
| 2026-05-05 19:05 | 39.66752 | 3.60301 | 20621 ft | 462 kts | 36° |
| 2026-05-05 19:05 | 39.69469 | 3.62471 | 21013 ft | 457 kts | 19° |
| 2026-05-05 19:05 | 39.72419 | 3.63872 | 21408 ft | 457 kts | 14° |
| 2026-05-05 19:05 | 39.75423 | 3.65233 | 21852 ft | 459 kts | 14° |
| 2026-05-05 19:06 | 39.78457 | 3.66613 | 22235 ft | 463 kts | 14° |
| 2026-05-05 19:06 | 39.81517 | 3.68010 | 22635 ft | 466 kts | 14° |
| 2026-05-05 19:06 | 39.84586 | 3.69421 | 23036 ft | 469 kts | 14° |
| 2026-05-05 19:06 | 39.87679 | 3.70851 | 23431 ft | 471 kts | 14° |
| 2026-05-05 19:07 | 39.90745 | 3.72273 | 23755 ft | 474 kts | 14° |
| 2026-05-05 19:07 | 39.93864 | 3.73719 | 24068 ft | 476 kts | 14° |
| 2026-05-05 19:07 | 39.96997 | 3.75169 | 24394 ft | 479 kts | 14° |
| 2026-05-05 19:07 | 40.00159 | 3.76632 | 24643 ft | 483 kts | 14° |
| 2026-05-05 19:08 | 40.03339 | 3.78148 | 24931 ft | 487 kts | 15° |
| 2026-05-05 19:08 | 40.06525 | 3.79732 | 25226 ft | 490 kts | 16° |
| 2026-05-05 19:08 | 40.09714 | 3.81365 | 25531 ft | 493 kts | 17° |
| 2026-05-05 19:08 | 40.12912 | 3.83021 | 25846 ft | 495 kts | 17° |
| 2026-05-05 19:09 | 40.16086 | 3.84662 | 26142 ft | 497 kts | 16° |
| 2026-05-05 19:09 | 40.19326 | 3.86325 | 26439 ft | 499 kts | 16° |
| 2026-05-05 19:09 | 40.22584 | 3.87981 | 26635 ft | 504 kts | 16° |
| 2026-05-05 19:09 | 40.25872 | 3.89642 | 26892 ft | 506 kts | 16° |
| 2026-05-05 19:10 | 40.29135 | 3.91283 | 27158 ft | 509 kts | 15° |
| 2026-05-05 19:10 | 40.32451 | 3.92951 | 27424 ft | 511 kts | 16° |
| 2026-05-05 19:10 | 40.35800 | 3.94646 | 27688 ft | 514 kts | 16° |
| 2026-05-05 19:10 | 40.39139 | 3.96343 | 27956 ft | 516 kts | 16° |
| 2026-05-05 19:11 | 40.42507 | 3.98059 | 28233 ft | 520 kts | 16° |
| 2026-05-05 19:11 | 40.45891 | 3.99787 | 28396 ft | 524 kts | 16° |
| 2026-05-05 19:11 | 40.49307 | 4.01537 | 28709 ft | 525 kts | 16° |
| 2026-05-05 19:11 | 40.52679 | 4.03264 | 29043 ft | 525 kts | 16° |
| 2026-05-05 19:12 | 40.56084 | 4.05009 | 29387 ft | 525 kts | 16° |
| 2026-05-05 19:12 | 40.59494 | 4.06757 | 29719 ft | 525 kts | 16° |
| 2026-05-05 19:12 | 40.62913 | 4.08508 | 30036 ft | 526 kts | 16° |
| 2026-05-05 19:12 | 40.66318 | 4.10253 | 30338 ft | 525 kts | 16° |
| 2026-05-05 19:13 | 40.69681 | 4.11976 | 30636 ft | 525 kts | 16° |
| 2026-05-05 19:13 | 40.73131 | 4.13743 | 30956 ft | 524 kts | 16° |
| 2026-05-05 19:13 | 40.76482 | 4.15464 | 31266 ft | 524 kts | 16° |
| 2026-05-05 19:13 | 40.79876 | 4.17213 | 31581 ft | 523 kts | 16° |
| 2026-05-05 19:14 | 40.83274 | 4.18966 | 31914 ft | 522 kts | 16° |
| 2026-05-05 19:14 | 40.86661 | 4.20716 | 32199 ft | 522 kts | 16° |
| 2026-05-05 19:14 | 40.90047 | 4.22470 | 32524 ft | 521 kts | 16° |
| 2026-05-05 19:14 | 40.93381 | 4.24200 | 32832 ft | 521 kts | 16° |
| 2026-05-05 19:15 | 40.96762 | 4.25954 | 33155 ft | 520 kts | 16° |
| 2026-05-05 19:15 | 41.00134 | 4.27700 | 33470 ft | 520 kts | 16° |
| 2026-05-05 19:15 | 41.03515 | 4.29451 | 33780 ft | 519 kts | 16° |
| 2026-05-05 19:15 | 41.06887 | 4.31199 | 34076 ft | 520 kts | 16° |
| 2026-05-05 19:16 | 41.10254 | 4.32950 | 34311 ft | 520 kts | 16° |
| 2026-05-05 19:16 | 41.13622 | 4.34706 | 34580 ft | 519 kts | 17° |
| 2026-05-05 19:16 | 41.16986 | 4.36480 | 34874 ft | 517 kts | 17° |
| 2026-05-05 19:16 | 41.20283 | 4.38233 | 35151 ft | 516 kts | 17° |
| 2026-05-05 19:17 | 41.23610 | 4.40008 | 35432 ft | 514 kts | 17° |
| 2026-05-05 19:17 | 41.26926 | 4.41777 | 35735 ft | 513 kts | 17° |
| 2026-05-05 19:17 | 41.30241 | 4.43548 | 35869 ft | 512 kts | 17° |
| 2026-05-05 19:17 | 41.33543 | 4.45308 | 35892 ft | 511 kts | 17° |
| 2026-05-05 19:18 | 41.40141 | 4.48825 | 35887 ft | 510 kts | 17° |
| 2026-05-05 19:18 | 41.46724 | 4.52348 | 35887 ft | 509 kts | 17° |
| 2026-05-05 19:19 | 41.53298 | 4.55877 | 35890 ft | 509 kts | 17° |
| 2026-05-05 19:19 | 41.59880 | 4.59411 | 35875 ft | 510 kts | 17° |
| 2026-05-05 19:20 | 41.66428 | 4.62936 | 35882 ft | 510 kts | 17° |
| 2026-05-05 19:20 | 41.73002 | 4.66566 | 35904 ft | 513 kts | 21° |
| 2026-05-05 19:21 | 41.79233 | 4.71386 | 35899 ft | 517 kts | 27° |
| 2026-05-05 19:21 | 41.85361 | 4.76318 | 35895 ft | 517 kts | 27° |
| 2026-05-05 19:22 | 41.90499 | 4.80453 | 35922 ft | 517 kts | 27° |
| 2026-05-05 19:22 | 41.97688 | 4.86249 | 35910 ft | 517 kts | 27° |
| 2026-05-05 19:23 | 42.02826 | 4.90402 | 35903 ft | 517 kts | 27° |
| 2026-05-05 19:23 | 42.09004 | 4.95417 | 35869 ft | 517 kts | 27° |
| 2026-05-05 19:24 | 42.15133 | 5.00415 | 35884 ft | 518 kts | 27° |
| 2026-05-05 19:24 | 42.21315 | 5.05444 | 35890 ft | 518 kts | 27° |
| 2026-05-05 19:25 | 42.27469 | 5.10458 | 35900 ft | 518 kts | 27° |
| 2026-05-05 19:25 | 42.33641 | 5.15513 | 35907 ft | 519 kts | 28° |
| 2026-05-05 19:26 | 42.39819 | 5.20590 | 35907 ft | 519 kts | 28° |
| 2026-05-05 19:26 | 42.45985 | 5.25654 | 35910 ft | 518 kts | 28° |
| 2026-05-05 19:27 | 42.52178 | 5.30746 | 35922 ft | 519 kts | 28° |
| 2026-05-05 19:27 | 42.58317 | 5.35816 | 35877 ft | 520 kts | 28° |
| 2026-05-05 19:28 | 42.64505 | 5.40937 | 35884 ft | 521 kts | 28° |
| 2026-05-05 19:28 | 42.70711 | 5.46087 | 35888 ft | 521 kts | 28° |
| 2026-05-05 19:29 | 42.76865 | 5.51199 | 35898 ft | 522 kts | 28° |
| 2026-05-05 19:29 | 42.83068 | 5.56379 | 35904 ft | 522 kts | 28° |
| 2026-05-05 19:30 | 42.89239 | 5.61536 | 35942 ft | 522 kts | 28° |
| 2026-05-05 19:30 | 42.95440 | 5.66722 | 35936 ft | 522 kts | 28° |
| 2026-05-05 19:31 | 43.01629 | 5.71924 | 35899 ft | 521 kts | 29° |
| 2026-05-05 19:31 | 43.07765 | 5.77101 | 35919 ft | 521 kts | 29° |
| 2026-05-05 19:32 | 43.13945 | 5.82315 | 35950 ft | 521 kts | 29° |
| 2026-05-05 19:32 | 43.20110 | 5.87525 | 35956 ft | 520 kts | 29° |
| 2026-05-05 19:33 | 43.26271 | 5.92742 | 35953 ft | 520 kts | 28° |
| 2026-05-05 19:33 | 43.32778 | 5.96700 | 35962 ft | 509 kts | 10° |
| 2026-05-05 19:34 | 43.39665 | 5.98813 | 35961 ft | 505 kts | 7° |
| 2026-05-05 19:35 | 43.49954 | 6.01818 | 35966 ft | 505 kts | 7° |
| 2026-05-05 19:35 | 43.56839 | 6.03826 | 35960 ft | 504 kts | 7° |
| 2026-05-05 19:36 | 43.63667 | 6.05835 | 35954 ft | 504 kts | 7° |
| 2026-05-05 19:36 | 43.70528 | 6.07866 | 35964 ft | 504 kts | 7° |
| 2026-05-05 19:37 | 43.77412 | 6.09895 | 35934 ft | 504 kts | 6° |
| 2026-05-05 19:37 | 43.84239 | 6.11908 | 35935 ft | 505 kts | 7° |
| 2026-05-05 19:38 | 43.91141 | 6.13957 | 35964 ft | 505 kts | 7° |
| 2026-05-05 19:38 | 43.97989 | 6.15987 | 35960 ft | 505 kts | 7° |
| 2026-05-05 19:39 | 44.04867 | 6.18045 | 35960 ft | 505 kts | 7° |
| 2026-05-05 19:39 | 44.11705 | 6.20097 | 35982 ft | 505 kts | 7° |
| 2026-05-05 19:40 | 44.18573 | 6.22145 | 35973 ft | 504 kts | 7° |
| 2026-05-05 19:40 | 44.25453 | 6.24209 | 35987 ft | 504 kts | 7° |
| 2026-05-05 19:41 | 44.32312 | 6.26272 | 35985 ft | 504 kts | 7° |
| 2026-05-05 19:41 | 44.39131 | 6.28326 | 35974 ft | 503 kts | 7° |
| 2026-05-05 19:42 | 44.45979 | 6.30404 | 35986 ft | 503 kts | 8° |
| 2026-05-05 19:42 | 44.52799 | 6.32469 | 35987 ft | 502 kts | 8° |
| 2026-05-05 19:43 | 44.59637 | 6.34539 | 35972 ft | 502 kts | 8° |
| 2026-05-05 19:43 | 44.66483 | 6.36626 | 35970 ft | 502 kts | 8° |
| 2026-05-05 19:44 | 44.73324 | 6.38732 | 35963 ft | 502 kts | 8° |
| 2026-05-05 19:44 | 44.80122 | 6.40818 | 35971 ft | 502 kts | 8° |
| 2026-05-05 19:45 | 44.86905 | 6.42880 | 35972 ft | 500 kts | 8° |
| 2026-05-05 19:45 | 44.93703 | 6.44964 | 35977 ft | 500 kts | 8° |
| 2026-05-05 19:46 | 45.00501 | 6.47065 | 35957 ft | 499 kts | 8° |
| 2026-05-05 19:46 | 45.07297 | 6.49158 | 35969 ft | 498 kts | 8° |
| 2026-05-05 19:47 | 45.14024 | 6.51249 | 35971 ft | 497 kts | 8° |
| 2026-05-05 19:47 | 45.20784 | 6.53362 | 35971 ft | 495 kts | 8° |
| 2026-05-05 19:48 | 45.27533 | 6.55458 | 35976 ft | 495 kts | 8° |
| 2026-05-05 19:48 | 45.34222 | 6.57541 | 35966 ft | 494 kts | 8° |
| 2026-05-05 19:49 | 45.40928 | 6.59635 | 35972 ft | 494 kts | 9° |
| 2026-05-05 19:49 | 45.47658 | 6.61747 | 35931 ft | 494 kts | 8° |
| 2026-05-05 19:50 | 45.54367 | 6.63847 | 35922 ft | 494 kts | 8° |
| 2026-05-05 19:50 | 45.61048 | 6.65941 | 35941 ft | 495 kts | 8° |
| 2026-05-05 19:51 | 45.67779 | 6.68079 | 35939 ft | 495 kts | 9° |
| 2026-05-05 19:51 | 45.74527 | 6.70224 | 35935 ft | 496 kts | 9° |
| 2026-05-05 19:52 | 45.81196 | 6.72576 | 35951 ft | 499 kts | 17° |
| 2026-05-05 19:52 | 45.87574 | 6.76568 | 35962 ft | 500 kts | 22° |
| 2026-05-05 19:53 | 45.93922 | 6.80722 | 35956 ft | 500 kts | 22° |
| 2026-05-05 19:53 | 46.00253 | 6.84844 | 35966 ft | 499 kts | 22° |
| 2026-05-05 19:54 | 46.06577 | 6.88984 | 35960 ft | 498 kts | 22° |
| 2026-05-05 19:54 | 46.12853 | 6.93118 | 35956 ft | 497 kts | 22° |
| 2026-05-05 19:55 | 46.19147 | 6.97277 | 35970 ft | 496 kts | 22° |
| 2026-05-05 19:55 | 46.25378 | 7.01396 | 35967 ft | 494 kts | 22° |
| 2026-05-05 19:56 | 46.31645 | 7.05543 | 35963 ft | 494 kts | 22° |
| 2026-05-05 19:56 | 46.37862 | 7.09677 | 35970 ft | 493 kts | 23° |
| 2026-05-05 19:57 | 46.44102 | 7.13842 | 35948 ft | 492 kts | 23° |
| 2026-05-05 19:57 | 46.50321 | 7.17998 | 35943 ft | 491 kts | 23° |
| 2026-05-05 19:58 | 46.56509 | 7.22146 | 35943 ft | 491 kts | 23° |
| 2026-05-05 19:58 | 46.62720 | 7.26315 | 35926 ft | 491 kts | 23° |
| 2026-05-05 19:59 | 46.68928 | 7.30496 | 35930 ft | 491 kts | 23° |
| 2026-05-05 19:59 | 46.75118 | 7.34789 | 35910 ft | 492 kts | 30° |
| 2026-05-05 20:00 | 46.80489 | 7.40861 | 35913 ft | 492 kts | 39° |
| 2026-05-05 20:00 | 46.85781 | 7.47217 | 35914 ft | 493 kts | 39° |
| 2026-05-05 20:01 | 46.91073 | 7.53619 | 35913 ft | 493 kts | 39° |
| 2026-05-05 20:01 | 46.96364 | 7.60019 | 35933 ft | 492 kts | 39° |
| 2026-05-05 20:02 | 47.01613 | 7.66355 | 35932 ft | 491 kts | 39° |
| 2026-05-05 20:02 | 47.06887 | 7.72749 | 35924 ft | 491 kts | 39° |
| 2026-05-05 20:03 | 47.12151 | 7.79137 | 35938 ft | 490 kts | 39° |
| 2026-05-05 20:03 | 47.17394 | 7.85553 | 35933 ft | 489 kts | 40° |
| 2026-05-05 20:04 | 47.22600 | 7.91936 | 35930 ft | 489 kts | 40° |
| 2026-05-05 20:04 | 47.27834 | 7.98340 | 35940 ft | 489 kts | 40° |
| 2026-05-05 20:05 | 47.33056 | 8.04758 | 35940 ft | 488 kts | 40° |
| 2026-05-05 20:05 | 47.38283 | 8.11196 | 35931 ft | 488 kts | 40° |
| 2026-05-05 20:06 | 47.43453 | 8.17585 | 35928 ft | 488 kts | 40° |
| 2026-05-05 20:06 | 47.46068 | 8.20818 | 35773 ft | 488 kts | 40° |
| 2026-05-05 20:06 | 47.48666 | 8.24043 | 35462 ft | 487 kts | 40° |
| 2026-05-05 20:06 | 47.51281 | 8.27295 | 34705 ft | 491 kts | 40° |
| 2026-05-05 20:07 | 47.53918 | 8.30570 | 33754 ft | 498 kts | 40° |
| 2026-05-05 20:07 | 47.56577 | 8.33881 | 32863 ft | 499 kts | 40° |
| 2026-05-05 20:07 | 47.59241 | 8.37210 | 31818 ft | 503 kts | 40° |
| 2026-05-05 20:07 | 47.61866 | 8.40500 | 31102 ft | 500 kts | 40° |
| 2026-05-05 20:08 | 47.64538 | 8.43850 | 30183 ft | 502 kts | 40° |
| 2026-05-05 20:08 | 47.67210 | 8.47202 | 29150 ft | 503 kts | 40° |
| 2026-05-05 20:08 | 47.69893 | 8.50565 | 28074 ft | 505 kts | 40° |
| 2026-05-05 20:08 | 47.71666 | 8.52786 | 27474 ft | 504 kts | 40° |
| 2026-05-05 20:09 | 47.74341 | 8.56138 | 26606 ft | 502 kts | 40° |
| 2026-05-05 20:09 | 47.77003 | 8.59481 | 25842 ft | 498 kts | 40° |
| 2026-05-05 20:09 | 47.80496 | 8.63883 | 24933 ft | 493 kts | 40° |
| 2026-05-05 20:09 | 47.82253 | 8.66102 | 24489 ft | 490 kts | 40° |
| 2026-05-05 20:10 | 47.84851 | 8.69382 | 23836 ft | 485 kts | 40° |
| 2026-05-05 20:10 | 47.87416 | 8.72624 | 23131 ft | 481 kts | 40° |
| 2026-05-05 20:10 | 47.89929 | 8.75811 | 22417 ft | 476 kts | 41° |
| 2026-05-05 20:10 | 47.92427 | 8.78990 | 21778 ft | 469 kts | 41° |
| 2026-05-05 20:11 | 47.94893 | 8.82130 | 21104 ft | 464 kts | 41° |
| 2026-05-05 20:11 | 47.97337 | 8.85239 | 20426 ft | 459 kts | 41° |
| 2026-05-05 20:11 | 47.99756 | 8.88316 | 19728 ft | 455 kts | 40° |
| 2026-05-05 20:11 | 48.02155 | 8.91375 | 19163 ft | 449 kts | 40° |
| 2026-05-05 20:12 | 48.04519 | 8.94395 | 18616 ft | 443 kts | 40° |
| 2026-05-05 20:12 | 48.06844 | 8.97368 | 18100 ft | 436 kts | 40° |
| 2026-05-05 20:12 | 48.09096 | 9.00253 | 17597 ft | 428 kts | 40° |
| 2026-05-05 20:12 | 48.11340 | 9.03131 | 17096 ft | 421 kts | 40° |
| 2026-05-05 20:13 | 48.13548 | 9.05974 | 16611 ft | 414 kts | 40° |
| 2026-05-05 20:13 | 48.15721 | 9.08773 | 16117 ft | 408 kts | 40° |
| 2026-05-05 20:13 | 48.17871 | 9.11539 | 15626 ft | 403 kts | 40° |
| 2026-05-05 20:13 | 48.19994 | 9.14270 | 15121 ft | 400 kts | 40° |
| 2026-05-05 20:14 | 48.22068 | 9.16945 | 14609 ft | 396 kts | 40° |
| 2026-05-05 20:14 | 48.24160 | 9.19645 | 14093 ft | 394 kts | 39° |
| 2026-05-05 20:14 | 48.26235 | 9.22326 | 13563 ft | 393 kts | 39° |
| 2026-05-05 20:14 | 48.28308 | 9.25005 | 13015 ft | 391 kts | 39° |
| 2026-05-05 20:15 | 48.30369 | 9.27666 | 12452 ft | 388 kts | 39° |
| 2026-05-05 20:15 | 48.32388 | 9.30281 | 11922 ft | 386 kts | 39° |
| 2026-05-05 20:15 | 48.34415 | 9.32916 | 11364 ft | 384 kts | 39° |
| 2026-05-05 20:15 | 48.36477 | 9.35443 | 10805 ft | 381 kts | 33° |
| 2026-05-05 20:16 | 48.38751 | 9.37369 | 10602 ft | 366 kts | 22° |
| 2026-05-05 20:16 | 48.41037 | 9.38911 | 10476 ft | 353 kts | 21° |
| 2026-05-05 20:16 | 48.43240 | 9.40412 | 10352 ft | 341 kts | 21° |
| 2026-05-05 20:16 | 48.45363 | 9.41865 | 10224 ft | 329 kts | 21° |
| 2026-05-05 20:17 | 48.47414 | 9.43265 | 10042 ft | 320 kts | 21° |
| 2026-05-05 20:17 | 48.49401 | 9.44617 | 9882 ft | 313 kts | 21° |
| 2026-05-05 20:17 | 48.51386 | 9.45967 | 9762 ft | 312 kts | 21° |
| 2026-05-05 20:17 | 48.53377 | 9.47323 | 9304 ft | 313 kts | 21° |
| 2026-05-05 20:18 | 48.55367 | 9.48683 | 8912 ft | 311 kts | 21° |
| 2026-05-05 20:18 | 48.57334 | 9.50025 | 8348 ft | 308 kts | 21° |
| 2026-05-05 20:18 | 48.59263 | 9.51337 | 7895 ft | 301 kts | 20° |
| 2026-05-05 20:18 | 48.61143 | 9.52619 | 7376 ft | 298 kts | 20° |
| 2026-05-05 20:19 | 48.63025 | 9.53907 | 6856 ft | 294 kts | 20° |
| 2026-05-05 20:19 | 48.64878 | 9.55173 | 6179 ft | 290 kts | 20° |
| 2026-05-05 20:19 | 48.66726 | 9.56414 | 5621 ft | 289 kts | 17° |
| 2026-05-05 20:19 | 48.68642 | 9.57112 | 5357 ft | 276 kts | 0° |
| 2026-05-05 20:20 | 48.70488 | 9.57031 | 5204 ft | 252 kts | 345° |
| 2026-05-05 20:20 | 48.72119 | 9.56411 | 5024 ft | 233 kts | 338° |
| 2026-05-05 20:20 | 48.73555 | 9.55555 | 4888 ft | 215 kts | 318° |
| 2026-05-05 20:20 | 48.74425 | 9.53874 | 4711 ft | 194 kts | 287° |
| 2026-05-05 20:21 | 48.74560 | 9.51998 | 4593 ft | 170 kts | 259° |
| 2026-05-05 20:21 | 48.74267 | 9.50330 | 4428 ft | 160 kts | 253° |
| 2026-05-05 20:21 | 48.73967 | 9.48710 | 4107 ft | 160 kts | 254° |
| 2026-05-05 20:21 | 48.73665 | 9.47090 | 4020 ft | 160 kts | 253° |
| 2026-05-05 20:22 | 48.73362 | 9.45463 | 3955 ft | 162 kts | 253° |
| 2026-05-05 20:22 | 48.73054 | 9.43820 | 3798 ft | 161 kts | 253° |
| 2026-05-05 20:22 | 48.72748 | 9.42184 | 3588 ft | 161 kts | 253° |
| 2026-05-05 20:22 | 48.72445 | 9.40565 | 3404 ft | 162 kts | 253° |
| 2026-05-05 20:23 | 48.72138 | 9.38924 | 3188 ft | 162 kts | 253° |
| 2026-05-05 20:23 | 48.71831 | 9.37287 | 2987 ft | 162 kts | 252° |
| 2026-05-05 20:23 | 48.71523 | 9.35646 | 2777 ft | 160 kts | 252° |
| 2026-05-05 20:23 | 48.71230 | 9.34087 | 2554 ft | 151 kts | 252° |
| 2026-05-05 20:24 | 48.70945 | 9.32572 | 2367 ft | 148 kts | 252° |
| 2026-05-05 20:24 | 48.70667 | 9.31097 | 2157 ft | 147 kts | 252° |
| 2026-05-05 20:24 | 48.70382 | 9.29597 | 1943 ft | 150 kts | 253° |
| 2026-05-05 20:24 | 48.70096 | 9.28079 | 1746 ft | 150 kts | 253° |
| 2026-05-05 20:25 | 48.69815 | 9.26581 | 1541 ft | 149 kts | 252° |
| 2026-05-05 20:25 | 48.69531 | 9.25081 | 1326 ft | 147 kts | 253° |
| 2026-05-05 20:25 | 48.69259 | 9.23623 | 1210 ft | 139 kts | 253° |
| 2026-05-05 20:25 | 48.69034 | 9.22448 | 1229 ft | 88 kts | 253° |
| 2026-05-05 20:26 | 48.68954 | 9.22014 | 1239 ft | 24 kts | 257° |
| 2026-05-05 20:26 | 48.68945 | 9.21786 | 1246 ft | 20 kts | 274° |
| 2026-05-05 20:26 | 48.68968 | 9.21602 | 1255 ft | 16 kts | 282° |
| 2026-05-05 20:26 | 48.68987 | 9.21466 | 1259 ft | 11 kts | 283° |
| 2026-05-05 20:27 | 48.68999 | 9.21365 | 1262 ft | 13 kts | 271° |
| 2026-05-05 20:27 | 48.68971 | 9.21180 | 1266 ft | 22 kts | 254° |
| 2026-05-05 20:27 | 48.68929 | 9.20967 | 1274 ft | 20 kts | 253° |
| 2026-05-05 20:27 | 48.68895 | 9.20785 | 1273 ft | 17 kts | 255° |
| 2026-05-05 20:28 | 48.68863 | 9.20613 | 1277 ft | 21 kts | 254° |
| 2026-05-05 20:28 | 48.68815 | 9.20360 | 1285 ft | 25 kts | 253° |
| 2026-05-05 20:28 | 48.68772 | 9.20134 | 1288 ft | 16 kts | 253° |
| 2026-05-05 20:28 | 48.68758 | 9.20050 | 1290 ft | 7 kts | 262° |
| 2026-05-05 20:29 | 48.68791 | 9.19952 | 1295 ft | 14 kts | 314° |
| 2026-05-05 20:29 | 48.68865 | 9.19882 | 1301 ft | 10 kts | 336° |
| 2026-05-05 20:29 | 48.68887 | 9.19822 | 1304 ft | 8 kts | 271° |
| 2026-05-05 20:29 | 48.68870 | 9.19718 | 1307 ft | 9 kts | 253° |
| 2026-05-05 20:30 | 48.68856 | 9.19640 | 1309 ft | 6 kts | 262° |
| 2026-05-05 20:30 | 48.68872 | 9.19605 | 1311 ft | 3 kts | 324° |
| 2026-05-05 20:30 | 48.68887 | 9.19597 | 1312 ft | 5 kts | 342° |
| 2026-05-05 20:30 | 48.68911 | 9.19587 | 1314 ft | 1 kts | 344° |
| 2026-05-05 20:31 | 48.68922 | 9.19582 | 1314 ft | 0 kts | 344° |